Time;durP1;ratioP1;P1;durP2;ratioP2;P2;SDS_P1;SDS_P2;PMS_P1;PMS_P2;Temp;Humidity;BMP_temperature;BMP_pressure;BME280_temperature;BME280_humidity;BME280_pressure;Samples;Min_cycle;Max_cycle;Signal;HPM_P1;HPM_P2
2021/05/15 00:01:02;;;;;;;;;;;20.40;58.80;;;;;;5040793;28;19919;-74
2021/05/15 00:03:27;;;;;;;;;;;20.40;58.80;;;;;;5055064;28;20373;-74
2021/05/15 00:05:53;;;;;;;;;;;20.40;58.70;;;;;;5054851;28;19960;-74
2021/05/15 00:08:23;;;;;;;;;;;20.40;58.70;;;;;;5043134;28;19931;-74
2021/05/15 00:10:49;;;;;;;;;;;20.40;58.80;;;;;;5053014;28;19943;-74
2021/05/15 00:13:28;;;;;;;;;;;20.40;58.80;;;;;;5055249;28;20313;-73
2021/05/15 00:15:54;;;;;;;;;;;20.40;58.80;;;;;;5025891;28;19995;-74
2021/05/15 00:18:24;;;;;;;;;;;20.50;58.80;;;;;;5033873;28;20035;-74
2021/05/15 00:20:55;;;;;;;;;;;20.40;58.70;;;;;;5036848;28;20282;-75
2021/05/15 00:23:25;;;;;;;;;;;20.40;58.80;;;;;;5037621;28;19916;-74
2021/05/15 00:25:56;;;;;;;;;;;20.40;58.80;;;;;;5054428;28;19909;-74
2021/05/15 00:28:21;;;;;;;;;;;20.40;58.80;;;;;;5031934;28;19924;-74
2021/05/15 00:30:52;;;;;;;;;;;20.40;58.80;;;;;;5052962;28;19921;-74
2021/05/15 00:33:17;;;;;;;;;;;20.40;58.80;;;;;;5049395;28;19931;-74
2021/05/15 00:35:47;;;;;;;;;;;20.40;58.80;;;;;;5054966;28;19923;-74
2021/05/15 00:38:15;;;;;;;;;;;20.40;58.80;;;;;;5029754;28;19913;-74
2021/05/15 00:40:40;;;;;;;;;;;20.40;58.80;;;;;;5031667;28;19909;-75
2021/05/15 00:43:09;;;;;;;;;;;20.40;58.80;;;;;;5053108;28;19921;-74
2021/05/15 00:45:45;;;;;;;;;;;20.40;58.80;;;;;;5054856;28;19960;-75
2021/05/15 00:48:16;;;;;;;;;;;20.40;58.80;;;;;;5053642;28;19924;-75
2021/05/15 00:50:47;;;;;;;;;;;20.40;58.80;;;;;;5054402;28;19971;-74
2021/05/15 00:53:18;;;;;;;;;;;20.40;58.80;;;;;;5029733;28;20019;-74
2021/05/15 00:55:43;;;;;;;;;;;20.40;58.80;;;;;;5029808;28;19913;-74
2021/05/15 00:58:09;;;;;;;;;;;20.40;58.80;;;;;;5049931;28;20373;-74
2021/05/15 01:00:39;;;;;;;;;;;20.30;58.80;;;;;;5036817;28;19939;-74
2021/05/15 01:03:10;;;;;;;;;;;20.40;58.80;;;;;;5033013;28;19914;-74
2021/05/15 01:05:40;;;;;;;;;;;20.40;58.80;;;;;;5053542;28;20003;-75
2021/05/15 01:08:06;;;;;;;;;;;20.40;58.80;;;;;;5036425;28;19917;-77
2021/05/15 01:10:39;;;;;;;;;;;20.40;58.90;;;;;;5036561;28;20406;-74
2021/05/15 01:13:06;;;;;;;;;;;20.40;58.90;;;;;;5031000;28;20282;-75
2021/05/15 01:15:46;;;;;;;;;;;20.40;58.90;;;;;;5035897;28;19912;-74
2021/05/15 01:18:16;;;;;;;;;;;20.40;58.90;;;;;;5053515;28;19916;-74
2021/05/15 01:20:47;;;;;;;;;;;20.40;58.80;;;;;;5046886;28;20467;-75
2021/05/15 01:23:12;;;;;;;;;;;20.40;58.90;;;;;;5053703;28;20305;-74
2021/05/15 01:25:38;;;;;;;;;;;20.40;58.90;;;;;;5037228;28;19913;-74
2021/05/15 01:28:03;;;;;;;;;;;20.40;58.90;;;;;;5052785;28;20265;-74
2021/05/15 01:30:32;;;;;;;;;;;20.40;58.90;;;;;;5052448;28;19924;-74
2021/05/15 01:32:57;;;;;;;;;;;20.40;58.90;;;;;;5047231;28;19940;-75
2021/05/15 01:35:23;;;;;;;;;;;20.40;58.90;;;;;;5052393;28;20371;-74
2021/05/15 01:37:48;;;;;;;;;;;20.40;58.90;;;;;;5053447;28;19967;-75
2021/05/15 01:40:14;;;;;;;;;;;20.40;58.90;;;;;;5050803;28;19912;-75
2021/05/15 01:42:40;;;;;;;;;;;20.40;58.90;;;;;;5053791;28;19916;-74
2021/05/15 01:45:06;;;;;;;;;;;20.30;58.90;;;;;;5051472;28;20003;-74
2021/05/15 01:47:38;;;;;;;;;;;20.40;58.90;;;;;;5052921;28;19921;-74
2021/05/15 01:50:08;;;;;;;;;;;20.30;58.90;;;;;;5051716;28;20378;-74
2021/05/15 01:52:33;;;;;;;;;;;20.30;58.90;;;;;;5034138;28;19913;-75
2021/05/15 01:55:04;;;;;;;;;;;20.40;58.90;;;;;;5053113;28;19920;-74
2021/05/15 01:57:34;;;;;;;;;;;20.30;58.90;;;;;;5053269;28;20247;-74
2021/05/15 02:00:02;;;;;;;;;;;20.30;58.90;;;;;;5053762;28;19967;-74
2021/05/15 02:02:28;;;;;;;;;;;20.40;58.90;;;;;;5052955;28;19959;-75
2021/05/15 02:04:58;;;;;;;;;;;20.40;58.90;;;;;;5036518;28;19918;-74
2021/05/15 02:07:24;;;;;;;;;;;20.40;58.90;;;;;;5034826;28;20115;-74
2021/05/15 02:09:52;;;;;;;;;;;20.30;58.90;;;;;;5032717;28;20003;-74
2021/05/15 02:12:18;;;;;;;;;;;20.30;59.00;;;;;;5025072;28;19964;-75
2021/05/15 02:14:57;;;;;;;;;;;20.30;58.90;;;;;;5032698;28;19948;-74
2021/05/15 02:17:33;;;;;;;;;;;20.30;58.90;;;;;;5042039;28;19956;-75
2021/05/15 02:20:00;;;;;;;;;;;20.30;59.00;;;;;;5046780;28;19963;-75
2021/05/15 02:22:26;;;;;;;;;;;20.30;58.90;;;;;;5033549;28;19921;-74
2021/05/15 02:24:56;;;;;;;;;;;20.30;59.00;;;;;;5032932;28;20079;-74
2021/05/15 02:27:21;;;;;;;;;;;20.30;59.00;;;;;;5027239;28;20457;-74
2021/05/15 02:29:53;;;;;;;;;;;20.30;59.00;;;;;;5028468;28;20008;-74
2021/05/15 02:32:19;;;;;;;;;;;20.30;59.00;;;;;;5031329;28;20321;-74
2021/05/15 02:34:49;;;;;;;;;;;20.30;59.00;;;;;;5028741;28;19913;-74
2021/05/15 02:37:20;;;;;;;;;;;20.30;59.00;;;;;;5032740;28;19914;-75
2021/05/15 02:39:50;;;;;;;;;;;20.30;59.00;;;;;;5021739;28;20267;-75
2021/05/15 02:42:20;;;;;;;;;;;20.30;59.00;;;;;;5026351;28;19924;-75
2021/05/15 02:44:51;;;;;;;;;;;20.30;59.00;;;;;;5030666;28;20376;-74
2021/05/15 02:47:17;;;;;;;;;;;20.30;59.00;;;;;;5033450;28;20437;-74
2021/05/15 02:49:42;;;;;;;;;;;20.30;59.00;;;;;;5020313;28;19924;-74
2021/05/15 02:52:16;;;;;;;;;;;20.30;59.00;;;;;;5036420;28;19920;-74
2021/05/15 02:54:45;;;;;;;;;;;20.30;59.00;;;;;;5032179;28;20004;-74
2021/05/15 02:57:10;;;;;;;;;;;20.30;59.00;;;;;;5032210;28;19992;-74
2021/05/15 02:59:41;;;;;;;;;;;20.30;59.00;;;;;;5046805;28;20036;-74
2021/05/15 03:02:06;;;;;;;;;;;20.30;59.00;;;;;;5032601;28;19928;-74
2021/05/15 03:04:37;;;;;;;;;;;20.30;59.00;;;;;;5047445;28;19913;-75
2021/05/15 03:07:02;;;;;;;;;;;20.30;59.00;;;;;;5030620;28;19990;-74
2021/05/15 03:09:31;;;;;;;;;;;20.30;59.10;;;;;;5029304;28;19960;-74
2021/05/15 03:11:56;;;;;;;;;;;20.30;59.10;;;;;;5032611;28;19927;-74
2021/05/15 03:14:28;;;;;;;;;;;20.30;59.10;;;;;;5031636;28;20003;-74
2021/05/15 03:16:56;;;;;;;;;;;20.30;59.10;;;;;;5043620;28;20343;-74
2021/05/15 03:19:27;;;;;;;;;;;20.30;59.00;;;;;;5034382;28;19913;-74
2021/05/15 03:22:04;;;;;;;;;;;20.30;59.10;;;;;;5027973;28;19917;-74
2021/05/15 03:24:30;;;;;;;;;;;20.30;59.10;;;;;;5043324;28;19952;-74
2021/05/15 03:26:56;;;;;;;;;;;20.30;59.10;;;;;;5025457;28;19967;-75
2021/05/15 03:29:27;;;;;;;;;;;20.30;59.10;;;;;;5032492;28;19952;-74
2021/05/15 03:31:56;;;;;;;;;;;20.30;59.10;;;;;;5038432;28;20368;-74
2021/05/15 03:34:22;;;;;;;;;;;20.30;59.10;;;;;;5034643;28;19912;-74
2021/05/15 03:36:52;;;;;;;;;;;20.30;59.10;;;;;;5036161;28;20462;-76
2021/05/15 03:39:23;;;;;;;;;;;20.30;59.10;;;;;;5042080;28;20267;-75
2021/05/15 03:41:51;;;;;;;;;;;20.30;59.10;;;;;;5035733;28;19913;-75
2021/05/15 03:44:17;;;;;;;;;;;20.30;59.10;;;;;;5033553;28;20285;-75
2021/05/15 03:46:42;;;;;;;;;;;20.30;59.10;;;;;;5050680;28;19971;-74
2021/05/15 03:49:13;;;;;;;;;;;20.30;59.10;;;;;;5035019;28;19924;-74
2021/05/15 03:51:39;;;;;;;;;;;20.30;59.10;;;;;;5034011;28;19913;-74
2021/05/15 03:54:09;;;;;;;;;;;20.30;59.10;;;;;;5033982;28;20358;-75
2021/05/15 03:56:35;;;;;;;;;;;20.30;59.10;;;;;;5033462;28;19956;-74
2021/05/15 03:59:01;;;;;;;;;;;20.30;59.10;;;;;;5035168;28;19965;-74
2021/05/15 04:01:26;;;;;;;;;;;20.30;59.10;;;;;;5032939;28;19917;-74
2021/05/15 04:03:52;;;;;;;;;;;20.30;59.10;;;;;;5034241;28;19920;-74
2021/05/15 04:06:17;;;;;;;;;;;20.30;59.10;;;;;;5035187;28;19917;-74
2021/05/15 04:08:43;;;;;;;;;;;20.30;59.10;;;;;;5033658;28;19917;-74
2021/05/15 04:11:11;;;;;;;;;;;20.30;59.10;;;;;;5025731;28;19944;-74
2021/05/15 04:13:51;;;;;;;;;;;20.30;59.10;;;;;;5040283;28;19917;-74
2021/05/15 04:16:26;;;;;;;;;;;20.30;59.10;;;;;;5044998;28;19913;-74
2021/05/15 04:18:52;;;;;;;;;;;20.30;59.10;;;;;;5031741;28;19948;-75
2021/05/15 04:21:17;;;;;;;;;;;20.30;59.10;;;;;;5034152;28;20317;-74
2021/05/15 04:23:43;;;;;;;;;;;20.30;59.10;;;;;;5035363;28;20029;-74
2021/05/15 04:26:14;;;;;;;;;;;20.30;59.10;;;;;;5033904;28;19940;-74
2021/05/15 04:28:39;;;;;;;;;;;20.30;59.00;;;;;;5031317;28;20323;-74
2021/05/15 04:31:05;;;;;;;;;;;20.30;59.00;;;;;;5032241;28;19913;-74
2021/05/15 04:33:31;;;;;;;;;;;20.30;59.00;;;;;;5030500;28;19913;-74
2021/05/15 04:36:01;;;;;;;;;;;20.30;59.00;;;;;;5035393;28;19959;-75
2021/05/15 04:38:27;;;;;;;;;;;20.30;59.00;;;;;;5034655;28;20067;-74
2021/05/15 04:40:53;;;;;;;;;;;20.30;59.00;;;;;;5030234;28;20016;-75
2021/05/15 04:43:19;;;;;;;;;;;20.30;59.00;;;;;;5033871;28;19920;-74
2021/05/15 04:45:45;;;;;;;;;;;20.30;59.00;;;;;;5034140;28;20367;-74
2021/05/15 04:48:13;;;;;;;;;;;20.30;59.00;;;;;;5031207;28;20002;-77
2021/05/15 04:50:39;;;;;;;;;;;20.30;59.00;;;;;;5031610;28;19917;-74
2021/05/15 04:53:08;;;;;;;;;;;20.30;59.00;;;;;;5037368;28;19920;-74
2021/05/15 04:55:35;;;;;;;;;;;20.30;59.00;;;;;;5028824;28;19920;-74
2021/05/15 04:58:01;;;;;;;;;;;20.30;59.00;;;;;;5032642;28;19925;-74
2021/05/15 05:00:29;;;;;;;;;;;20.30;59.00;;;;;;5027214;28;19932;-75
2021/05/15 05:03:01;;;;;;;;;;;20.30;59.00;;;;;;5050193;28;19943;-75
2021/05/15 05:05:26;;;;;;;;;;;20.30;59.00;;;;;;5031492;28;19913;-74
2021/05/15 05:07:52;;;;;;;;;;;20.30;59.00;;;;;;5034470;28;19924;-74
2021/05/15 05:10:22;;;;;;;;;;;20.30;58.90;;;;;;5034633;28;19924;-76
2021/05/15 05:12:48;;;;;;;;;;;20.30;59.00;;;;;;5048807;28;19967;-74
2021/05/15 05:15:13;;;;;;;;;;;20.30;59.00;;;;;;5053805;28;19913;-74
2021/05/15 05:17:44;;;;;;;;;;;20.30;59.00;;;;;;5053595;28;19921;-75
2021/05/15 05:20:09;;;;;;;;;;;20.30;58.90;;;;;;5054185;28;19913;-74
2021/05/15 05:22:35;;;;;;;;;;;20.30;58.90;;;;;;5052143;28;19928;-74
2021/05/15 05:25:05;;;;;;;;;;;20.30;58.90;;;;;;5043786;28;19935;-74
2021/05/15 05:27:36;;;;;;;;;;;20.30;58.90;;;;;;5035646;28;20393;-74
2021/05/15 05:30:05;;;;;;;;;;;20.30;58.80;;;;;;5049539;28;19916;-75
2021/05/15 05:32:35;;;;;;;;;;;20.30;58.80;;;;;;5053873;28;19919;-75
2021/05/15 05:35:06;;;;;;;;;;;20.30;58.80;;;;;;5054003;28;20366;-74
2021/05/15 05:37:31;;;;;;;;;;;20.30;58.80;;;;;;5051554;28;19916;-76
2021/05/15 05:40:00;;;;;;;;;;;20.30;58.80;;;;;;5051167;28;19927;-74
2021/05/15 05:42:37;;;;;;;;;;;20.30;58.90;;;;;;5031273;28;19913;-75
2021/05/15 05:45:03;;;;;;;;;;;20.30;58.80;;;;;;5032732;28;20031;-74
2021/05/15 05:47:41;;;;;;;;;;;20.30;58.80;;;;;;5028991;28;19924;-74
2021/05/15 05:50:07;;;;;;;;;;;20.30;58.80;;;;;;5031606;28;19925;-75
2021/05/15 05:52:37;;;;;;;;;;;20.30;58.80;;;;;;5042748;28;20004;-74
2021/05/15 05:55:04;;;;;;;;;;;20.40;58.70;;;;;;5052464;28;19912;-74
2021/05/15 05:57:34;;;;;;;;;;;20.30;58.70;;;;;;5037132;28;20039;-74
2021/05/15 06:00:06;;;;;;;;;;;20.40;58.70;;;;;;5040490;28;19976;-74
2021/05/15 06:02:32;;;;;;;;;;;20.40;58.60;;;;;;5034810;28;19913;-75
2021/05/15 06:05:03;;;;;;;;;;;20.40;58.60;;;;;;5034771;28;19966;-74
2021/05/15 06:07:31;;;;;;;;;;;20.40;58.60;;;;;;5053100;28;19917;-75
2021/05/15 06:09:57;;;;;;;;;;;20.40;58.60;;;;;;5035007;28;19978;-75
2021/05/15 06:12:22;;;;;;;;;;;20.40;58.60;;;;;;5041815;28;19963;-75
2021/05/15 06:14:54;;;;;;;;;;;20.40;58.60;;;;;;5034757;28;20373;-75
2021/05/15 06:17:19;;;;;;;;;;;20.40;58.50;;;;;;5046213;28;19921;-75
2021/05/15 06:19:45;;;;;;;;;;;20.40;58.60;;;;;;5028388;28;19921;-74
2021/05/15 06:22:18;;;;;;;;;;;20.40;58.60;;;;;;5035318;28;19913;-75
2021/05/15 06:24:52;;;;;;;;;;;20.40;58.60;;;;;;5032568;28;20305;-75
2021/05/15 06:27:17;;;;;;;;;;;20.40;58.60;;;;;;5046700;28;19920;-75
2021/05/15 06:29:43;;;;;;;;;;;20.40;58.50;;;;;;5051212;28;19923;-74
2021/05/15 06:32:13;;;;;;;;;;;20.40;58.50;;;;;;5032140;28;19920;-75
2021/05/15 06:34:39;;;;;;;;;;;20.50;58.40;;;;;;5034997;28;20366;-74
2021/05/15 06:37:04;;;;;;;;;;;20.50;58.40;;;;;;5045971;28;20066;-75
2021/05/15 06:39:30;;;;;;;;;;;20.50;58.30;;;;;;5031335;28;19995;-74
2021/05/15 06:41:55;;;;;;;;;;;20.50;58.30;;;;;;5051478;28;19958;-75
2021/05/15 06:44:21;;;;;;;;;;;20.50;58.30;;;;;;5051673;28;19974;-74
2021/05/15 06:46:46;;;;;;;;;;;20.50;58.30;;;;;;5032016;28;19924;-75
2021/05/15 06:49:12;;;;;;;;;;;20.50;58.20;;;;;;5052080;28;20367;-75
2021/05/15 06:51:37;;;;;;;;;;;20.50;58.20;;;;;;5052130;28;20407;-75
2021/05/15 06:54:08;;;;;;;;;;;20.50;58.20;;;;;;5035810;28;20421;-76
2021/05/15 06:56:33;;;;;;;;;;;20.50;58.10;;;;;;5025742;28;20323;-74
2021/05/15 06:59:04;;;;;;;;;;;20.60;58.00;;;;;;5051903;28;19913;-76
2021/05/15 07:01:34;;;;;;;;;;;20.60;57.90;;;;;;5053982;28;20009;-74
2021/05/15 07:04:00;;;;;;;;;;;20.60;57.80;;;;;;5055701;28;20372;-76
2021/05/15 07:06:30;;;;;;;;;;;20.60;57.80;;;;;;5062015;28;20003;-76
2021/05/15 07:09:11;;;;;;;;;;;20.70;57.80;;;;;;5032755;28;20385;-76
2021/05/15 07:11:45;;;;;;;;;;;20.60;57.80;;;;;;5040717;28;19940;-74
2021/05/15 07:14:12;;;;;;;;;;;20.60;57.80;;;;;;5051706;28;20344;-75
2021/05/15 07:16:37;;;;;;;;;;;20.70;57.70;;;;;;5052664;28;20004;-75
2021/05/15 07:19:06;;;;;;;;;;;20.70;57.60;;;;;;5046229;28;20009;-74
2021/05/15 07:21:34;;;;;;;;;;;20.70;57.60;;;;;;5052418;28;19921;-74
2021/05/15 07:23:59;;;;;;;;;;;20.70;57.50;;;;;;5052087;28;19920;-75
2021/05/15 07:26:25;;;;;;;;;;;20.70;57.50;;;;;;5031208;28;19913;-76
2021/05/15 07:28:52;;;;;;;;;;;20.70;57.50;;;;;;5053153;28;19928;-76
2021/05/15 07:31:18;;;;;;;;;;;20.80;57.50;;;;;;5027601;28;19920;-74
2021/05/15 07:33:48;;;;;;;;;;;20.80;57.40;;;;;;5053468;28;20012;-75
2021/05/15 07:36:19;;;;;;;;;;;20.80;57.30;;;;;;5050282;28;19919;-74
2021/05/15 07:38:49;;;;;;;;;;;20.80;57.20;;;;;;5051143;28;19917;-74
2021/05/15 07:41:19;;;;;;;;;;;20.80;57.20;;;;;;5050788;28;19916;-80
2021/05/15 07:43:45;;;;;;;;;;;20.90;57.10;;;;;;5051600;28;19912;-74
2021/05/15 07:46:13;;;;;;;;;;;20.80;57.20;;;;;;5051582;28;21109;-75
2021/05/15 07:48:47;;;;;;;;;;;20.80;57.20;;;;;;5051098;28;19917;-74
2021/05/15 07:51:15;;;;;;;;;;;20.80;57.20;;;;;;5052315;28;19920;-78
2021/05/15 07:53:41;;;;;;;;;;;20.80;57.20;;;;;;5049238;28;19917;-75
2021/05/15 07:56:07;;;;;;;;;;;20.80;57.10;;;;;;5052381;28;19917;-75
2021/05/15 07:58:33;;;;;;;;;;;20.80;57.00;;;;;;5052584;28;19917;-74
2021/05/15 08:01:03;;;;;;;;;;;20.90;57.10;;;;;;5050419;28;19924;-74
2021/05/15 08:03:33;;;;;;;;;;;20.90;57.10;;;;;;5028983;28;19917;-75
2021/05/15 08:06:19;;;;;;;;;;;20.90;57.00;;;;;;5052513;28;19927;-74
2021/05/15 08:08:45;;;;;;;;;;;20.90;57.00;;;;;;5049947;28;19917;-75
2021/05/15 08:11:17;;;;;;;;;;;20.90;57.00;;;;;;5048722;28;19974;-75
2021/05/15 08:13:48;;;;;;;;;;;20.90;57.00;;;;;;5034252;28;19935;-75
2021/05/15 08:16:18;;;;;;;;;;;20.80;57.10;;;;;;5053740;28;19947;-74
2021/05/15 08:18:44;;;;;;;;;;;20.80;57.10;;;;;;5038132;28;19913;-80
2021/05/15 08:21:11;;;;;;;;;;;20.80;57.10;;;;;;5051977;28;20357;-78
2021/05/15 08:23:45;;;;;;;;;;;20.80;57.10;;;;;;5055669;28;20015;-77
2021/05/15 08:26:11;;;;;;;;;;;20.80;57.00;;;;;;5055320;28;19958;-78
2021/05/15 08:28:41;;;;;;;;;;;20.90;57.00;;;;;;5040758;28;19917;-78
2021/05/15 08:31:09;;;;;;;;;;;20.90;57.00;;;;;;5056121;28;20404;-78
2021/05/15 08:33:36;;;;;;;;;;;20.90;56.90;;;;;;5056137;28;19921;-78
2021/05/15 08:36:01;;;;;;;;;;;20.90;56.90;;;;;;5035438;28;20003;-77
2021/05/15 08:38:27;;;;;;;;;;;20.90;56.80;;;;;;5055852;28;20015;-76
2021/05/15 08:40:53;;;;;;;;;;;21.00;56.80;;;;;;5035436;28;20011;-76
2021/05/15 08:43:18;;;;;;;;;;;21.00;56.70;;;;;;5057935;28;20353;-76
2021/05/15 08:45:46;;;;;;;;;;;21.00;56.70;;;;;;5036525;28;19916;-76
2021/05/15 08:48:11;;;;;;;;;;;21.00;56.70;;;;;;5043544;28;20305;-76
2021/05/15 08:50:37;;;;;;;;;;;20.90;56.80;;;;;;5037105;28;19932;-76
2021/05/15 08:53:03;;;;;;;;;;;20.90;56.70;;;;;;5037328;28;19913;-77
2021/05/15 08:55:30;;;;;;;;;;;21.00;56.70;;;;;;5053346;28;19913;-77
2021/05/15 08:57:57;;;;;;;;;;;21.00;56.60;;;;;;5054885;28;20015;-77
2021/05/15 09:00:27;;;;;;;;;;;21.00;56.50;;;;;;5046260;28;19912;-76
2021/05/15 09:02:54;;;;;;;;;;;21.00;56.50;;;;;;5053602;28;19916;-77
2021/05/15 09:05:21;;;;;;;;;;;21.10;56.40;;;;;;5037136;28;20299;-76
2021/05/15 09:07:49;;;;;;;;;;;21.10;56.40;;;;;;5039849;28;19924;-76
2021/05/15 09:10:17;;;;;;;;;;;21.00;56.40;;;;;;5040749;28;19921;-76
2021/05/15 09:12:42;;;;;;;;;;;21.10;56.50;;;;;;5038915;28;19965;-76
2021/05/15 09:15:08;;;;;;;;;;;21.00;56.50;;;;;;5049227;28;19916;-76
2021/05/15 09:17:43;;;;;;;;;;;21.00;56.60;;;;;;5040332;28;19970;-76
2021/05/15 09:20:09;;;;;;;;;;;21.00;56.60;;;;;;5061067;28;19913;-76
2021/05/15 09:22:35;;;;;;;;;;;21.00;56.60;;;;;;5050139;28;20392;-76
2021/05/15 09:25:05;;;;;;;;;;;21.00;56.50;;;;;;5060076;28;19913;-78
2021/05/15 09:27:32;;;;;;;;;;;21.10;56.50;;;;;;5064687;28;19917;-76
2021/05/15 09:29:57;;;;;;;;;;;21.00;56.50;;;;;;5036239;28;20398;-77
2021/05/15 09:32:30;;;;;;;;;;;21.00;56.40;;;;;;5053086;28;19963;-78
2021/05/15 09:34:56;;;;;;;;;;;21.10;56.40;;;;;;5054290;28;19974;-77
2021/05/15 09:37:33;;;;;;;;;;;21.10;56.30;;;;;;5053105;28;20337;-76
2021/05/15 09:40:12;;;;;;;;;;;21.10;56.30;;;;;;5032967;28;19913;-76
2021/05/15 09:42:44;;;;;;;;;;;21.10;56.30;;;;;;5050292;28;20384;-77
2021/05/15 09:45:37;;;;;;;;;;;21.10;56.30;;;;;;5053972;28;19919;-77
2021/05/15 09:48:03;;;;;;;;;;;21.00;56.30;;;;;;5037953;28;20016;-78
2021/05/15 09:50:39;;;;;;;;;;;21.10;56.40;;;;;;5056135;28;19923;-77
2021/05/15 09:53:08;;;;;;;;;;;21.10;56.40;;;;;;5047084;28;20251;-76
2021/05/15 09:55:34;;;;;;;;;;;21.00;56.40;;;;;;5051534;28;20323;-77
2021/05/15 09:58:02;;;;;;;;;;;21.10;56.40;;;;;;5038336;28;19916;-77
2021/05/15 10:00:37;;;;;;;;;;;21.10;56.30;;;;;;5035896;28;20377;-76
2021/05/15 10:03:03;;;;;;;;;;;21.10;56.30;;;;;;5037990;28;19913;-77
2021/05/15 10:05:28;;;;;;;;;;;21.20;56.30;;;;;;5032895;28;19944;-77
2021/05/15 10:08:12;;;;;;;;;;;21.10;56.20;;;;;;5052441;28;20412;-79
2021/05/15 10:10:38;;;;;;;;;;;21.10;56.20;;;;;;5051967;28;19925;-79
2021/05/15 10:13:04;;;;;;;;;;;21.20;56.20;;;;;;5050369;28;20447;-79
2021/05/15 10:15:29;;;;;;;;;;;21.20;56.20;;;;;;5033704;28;19920;-79
2021/05/15 10:17:55;;;;;;;;;;;21.20;56.20;;;;;;5041394;28;19917;-79
2021/05/15 10:20:20;;;;;;;;;;;21.20;56.20;;;;;;5055290;28;19912;-81
2021/05/15 10:22:46;;;;;;;;;;;21.20;56.10;;;;;;5034926;28;19937;-79
2021/05/15 10:25:15;;;;;;;;;;;21.20;56.10;;;;;;5060207;28;19923;-79
2021/05/15 10:27:41;;;;;;;;;;;21.20;56.00;;;;;;5043751;28;21634;-78
2021/05/15 10:30:14;;;;;;;;;;;21.20;56.00;;;;;;5043858;28;19923;-82
2021/05/15 10:33:12;;;;;;;;;;;21.20;56.00;;;;;;5049203;28;19921;-79
2021/05/15 10:35:42;;;;;;;;;;;21.20;56.00;;;;;;5008694;28;19999;-79
2021/05/15 10:38:16;;;;;;;;;;;21.20;56.00;;;;;;5038472;28;19942;-79
2021/05/15 10:40:42;;;;;;;;;;;21.20;56.00;;;;;;5051395;28;20345;-79
2021/05/15 10:43:08;;;;;;;;;;;21.20;56.00;;;;;;5049960;28;19921;-81
2021/05/15 10:45:34;;;;;;;;;;;21.20;56.00;;;;;;5053130;28;19996;-80
2021/05/15 10:48:10;;;;;;;;;;;21.20;56.00;;;;;;5047378;28;19994;-78
2021/05/15 10:50:47;;;;;;;;;;;21.20;56.10;;;;;;5051274;28;20015;-78
2021/05/15 10:53:17;;;;;;;;;;;21.20;56.10;;;;;;5058275;28;19912;-79
2021/05/15 10:55:42;;;;;;;;;;;21.20;56.10;;;;;;5050585;28;20046;-76
2021/05/15 10:58:13;;;;;;;;;;;21.20;56.10;;;;;;5032414;28;19913;-75
2021/05/15 11:00:39;;;;;;;;;;;21.20;56.20;;;;;;5038858;28;19920;-75
2021/05/15 11:03:04;;;;;;;;;;;21.10;56.20;;;;;;5054394;28;20286;-76
2021/05/15 11:05:50;;;;;;;;;;;21.20;56.20;;;;;;5037238;28;19936;-76
2021/05/15 11:08:25;;;;;;;;;;;21.30;56.10;;;;;;5021261;28;19978;-76
2021/05/15 11:10:53;;;;;;;;;;;21.20;56.10;;;;;;5059845;28;19942;-75
2021/05/15 11:13:19;;;;;;;;;;;21.20;56.10;;;;;;5052684;28;19912;-75
2021/05/15 11:15:49;;;;;;;;;;;21.20;56.00;;;;;;5051137;28;20388;-75
2021/05/15 11:18:36;;;;;;;;;;;21.20;56.00;;;;;;5054883;28;19917;-76
2021/05/15 11:21:04;;;;;;;;;;;21.20;56.00;;;;;;5053599;28;19916;-75
2021/05/15 11:23:34;;;;;;;;;;;21.30;55.90;;;;;;5035408;28;19967;-77
2021/05/15 11:26:02;;;;;;;;;;;21.30;56.00;;;;;;5061025;28;19967;-75
2021/05/15 11:28:29;;;;;;;;;;;21.20;56.00;;;;;;5053219;28;19967;-75
2021/05/15 11:30:54;;;;;;;;;;;21.20;55.90;;;;;;5053707;28;20042;-76
2021/05/15 11:33:21;;;;;;;;;;;21.20;55.90;;;;;;5050160;28;20027;-76
2021/05/15 11:35:47;;;;;;;;;;;21.20;56.00;;;;;;5051165;28;19917;-76
2021/05/15 11:38:18;;;;;;;;;;;21.20;56.00;;;;;;5042556;28;19966;-75
2021/05/15 11:40:43;;;;;;;;;;;21.30;56.00;;;;;;5054219;28;19919;-76
2021/05/15 11:43:10;;;;;;;;;;;21.30;56.00;;;;;;5044955;28;20003;-76
2021/05/15 11:45:35;;;;;;;;;;;21.20;56.00;;;;;;5035031;28;20254;-76
2021/05/15 11:48:04;;;;;;;;;;;21.20;56.00;;;;;;5059906;28;19917;-76
2021/05/15 11:50:29;;;;;;;;;;;21.20;56.10;;;;;;5055553;28;19923;-75
2021/05/15 11:52:58;;;;;;;;;;;21.20;56.10;;;;;;5062417;28;19916;-76
2021/05/15 11:55:29;;;;;;;;;;;21.20;56.20;;;;;;5064927;28;19908;-76
2021/05/15 11:57:55;;;;;;;;;;;21.10;56.20;;;;;;5055226;28;19924;-75
2021/05/15 12:00:25;;;;;;;;;;;21.20;56.10;;;;;;5059105;28;19915;-75
2021/05/15 12:02:50;;;;;;;;;;;21.30;56.00;;;;;;5057947;28;20003;-75
2021/05/15 12:05:16;;;;;;;;;;;21.30;55.90;;;;;;5057494;28;20062;-75
2021/05/15 12:07:49;;;;;;;;;;;21.30;55.90;;;;;;5061790;28;19916;-75
2021/05/15 12:10:15;;;;;;;;;;;21.30;55.80;;;;;;5048835;28;19917;-75
2021/05/15 12:12:52;;;;;;;;;;;21.30;55.70;;;;;;5036854;28;19927;-76
2021/05/15 12:15:17;;;;;;;;;;;21.30;55.70;;;;;;5033709;28;19916;-76
2021/05/15 12:17:43;;;;;;;;;;;21.30;55.70;;;;;;5053672;28;20008;-76
2021/05/15 12:20:09;;;;;;;;;;;21.30;55.60;;;;;;5036100;28;19983;-76
2021/05/15 12:22:34;;;;;;;;;;;21.30;55.60;;;;;;5056929;28;19913;-76
2021/05/15 12:25:07;;;;;;;;;;;21.30;55.60;;;;;;5059029;28;19927;-75
2021/05/15 12:27:32;;;;;;;;;;;21.30;55.60;;;;;;5054034;28;20046;-75
2021/05/15 12:29:59;;;;;;;;;;;21.30;55.60;;;;;;5053335;28;20461;-76
2021/05/15 12:32:26;;;;;;;;;;;21.30;55.70;;;;;;5037203;28;19944;-76
2021/05/15 12:35:00;;;;;;;;;;;21.30;55.90;;;;;;5050844;28;19939;-75
2021/05/15 12:37:32;;;;;;;;;;;21.20;56.00;;;;;;5048851;28;19920;-75
2021/05/15 12:40:00;;;;;;;;;;;21.20;56.10;;;;;;5051566;28;19977;-75
2021/05/15 12:42:32;;;;;;;;;;;21.20;56.10;;;;;;5036566;28;19916;-75
2021/05/15 12:45:19;;;;;;;;;;;21.20;56.00;;;;;;5039396;28;20329;-75
2021/05/15 12:47:46;;;;;;;;;;;21.20;56.00;;;;;;5039299;28;19917;-75
2021/05/15 12:50:26;;;;;;;;;;;21.20;56.00;;;;;;5036012;28;19923;-75
2021/05/15 12:53:03;;;;;;;;;;;21.20;56.00;;;;;;5033383;28;19913;-75
2021/05/15 12:55:28;;;;;;;;;;;21.20;56.00;;;;;;5050732;28;20055;-75
2021/05/15 12:57:55;;;;;;;;;;;21.30;55.90;;;;;;5033836;28;20004;-76
2021/05/15 13:00:21;;;;;;;;;;;21.30;55.90;;;;;;5040404;28;20379;-75
2021/05/15 13:02:55;;;;;;;;;;;21.30;55.80;;;;;;5052852;28;19952;-76
2021/05/15 13:05:21;;;;;;;;;;;21.30;55.70;;;;;;5031259;28;19947;-75
2021/05/15 13:07:46;;;;;;;;;;;21.30;55.70;;;;;;5035726;28;20317;-76
2021/05/15 13:10:12;;;;;;;;;;;21.30;55.70;;;;;;5053643;28;19920;-74
2021/05/15 13:12:38;;;;;;;;;;;21.30;55.80;;;;;;5032521;28;20083;-74
2021/05/15 13:15:05;;;;;;;;;;;21.30;55.80;;;;;;5034110;28;19914;-74
2021/05/15 13:17:30;;;;;;;;;;;21.30;55.80;;;;;;5040868;28;20298;-74
2021/05/15 13:20:01;;;;;;;;;;;21.30;55.80;;;;;;5032633;28;19925;-74
2021/05/15 13:22:27;;;;;;;;;;;21.30;55.90;;;;;;5032085;28;19929;-74
2021/05/15 13:24:52;;;;;;;;;;;21.30;55.90;;;;;;5031264;28;19913;-74
2021/05/15 13:27:18;;;;;;;;;;;21.30;56.00;;;;;;5032217;28;20389;-74
2021/05/15 13:29:43;;;;;;;;;;;21.30;56.00;;;;;;5031413;28;19967;-74
2021/05/15 13:32:12;;;;;;;;;;;21.30;55.90;;;;;;5030768;28;20013;-75
2021/05/15 13:34:37;;;;;;;;;;;21.30;55.80;;;;;;5031478;28;20319;-74
2021/05/15 13:37:03;;;;;;;;;;;21.30;55.80;;;;;;5033823;28;20362;-74
2021/05/15 13:39:29;;;;;;;;;;;21.30;55.80;;;;;;5032175;28;19920;-72
2021/05/15 13:41:54;;;;;;;;;;;21.30;55.80;;;;;;5032460;28;20004;-72
2021/05/15 13:44:20;;;;;;;;;;;21.30;55.80;;;;;;5031322;28;19917;-72
2021/05/15 13:46:46;;;;;;;;;;;21.30;55.70;;;;;;5032643;28;19940;-71
2021/05/15 13:49:11;;;;;;;;;;;21.30;55.60;;;;;;5027425;28;20629;-71
2021/05/15 13:51:37;;;;;;;;;;;21.30;55.70;;;;;;5026904;28;19971;-71
2021/05/15 13:54:03;;;;;;;;;;;21.30;55.70;;;;;;5032223;28;19912;-73
2021/05/15 13:56:29;;;;;;;;;;;21.30;55.80;;;;;;5032673;28;19928;-71
2021/05/15 13:58:55;;;;;;;;;;;21.30;55.80;;;;;;5033107;28;20481;-72
2021/05/15 14:01:25;;;;;;;;;;;21.30;55.70;;;;;;5030896;28;19999;-71
2021/05/15 14:03:51;;;;;;;;;;;21.30;55.70;;;;;;5045829;28;19921;-71
2021/05/15 14:06:16;;;;;;;;;;;21.30;55.70;;;;;;5048299;28;19913;-71
2021/05/15 14:08:42;;;;;;;;;;;21.30;55.70;;;;;;5043677;28;19967;-71
2021/05/15 14:11:07;;;;;;;;;;;21.30;55.80;;;;;;5030400;28;20376;-72
2021/05/15 14:13:33;;;;;;;;;;;21.30;55.90;;;;;;5026915;28;19959;-71
2021/05/15 14:15:59;;;;;;;;;;;21.30;55.90;;;;;;5034768;28;19959;-71
2021/05/15 14:18:24;;;;;;;;;;;21.30;55.90;;;;;;5031242;28;20374;-72
2021/05/15 14:20:50;;;;;;;;;;;21.30;55.90;;;;;;5033990;28;19982;-71
2021/05/15 14:23:16;;;;;;;;;;;21.30;55.90;;;;;;5028920;28;19982;-71